createdAt,value
2022-11-09T00:02:56.498Z,50.76
2022-11-09T00:06:01.787Z,50.86
2022-11-09T00:09:08.575Z,50.18
2022-11-09T00:12:13.095Z,49.47
2022-11-09T00:15:17.392Z,48.98
2022-11-09T00:18:21.554Z,49.01
2022-11-09T00:21:26.512Z,47.76
2022-11-09T00:24:30.938Z,46.58
2022-11-09T00:27:35.289Z,45.26
2022-11-09T00:30:39.817Z,46.34
2022-11-09T00:33:44.203Z,45.61
2022-11-09T00:36:48.813Z,44.25
2022-11-09T00:39:52.996Z,45.75
2022-11-09T00:42:57.189Z,45.12
2022-11-09T00:46:01.590Z,46.00
2022-11-09T00:49:05.937Z,45.39
2022-11-09T00:52:10.749Z,44.67
2022-11-09T00:55:15.262Z,45.04
2022-11-09T00:58:19.661Z,44.40
2022-11-09T01:01:24.597Z,44.17
2022-11-09T01:04:29.233Z,43.00
2022-11-09T01:07:33.642Z,43.11
2022-11-09T01:10:40.777Z,43.16
2022-11-09T01:13:45.843Z,42.47
2022-11-09T01:16:50.418Z,42.31
2022-11-09T01:19:54.798Z,42.12
2022-11-09T01:23:00.002Z,42.24
2022-11-09T01:26:10.881Z,42.79
2022-11-09T01:29:15.304Z,42.56
2022-11-09T01:32:19.497Z,43.24
2022-11-09T01:35:23.748Z,42.75
2022-11-09T01:38:29.219Z,43.18
2022-11-09T01:41:33.500Z,43.02
2022-11-09T01:44:41.201Z,44.18
2022-11-09T01:48:04.299Z,44.52
2022-11-09T01:51:14.401Z,44.44
2022-11-09T01:54:25.988Z,44.56
2022-11-09T01:57:37.909Z,44.93
2022-11-09T02:00:45.951Z,44.82
2022-11-09T02:04:17.305Z,45.13
2022-11-09T02:07:23.635Z,45.65
2022-11-09T02:10:35.117Z,45.76
2022-11-09T02:13:42.725Z,45.75
2022-11-09T02:16:48.810Z,44.83
2022-11-09T02:19:52.890Z,45.46
2022-11-09T02:22:59.140Z,45.48
2022-11-09T02:26:15.781Z,45.47
2022-11-09T02:29:27.416Z,45.80
2022-11-09T02:32:32.734Z,45.45
2022-11-09T02:35:37.690Z,45.51
2022-11-09T02:38:42.826Z,45.72
2022-11-09T02:41:55.188Z,45.22
2022-11-09T02:45:01.457Z,44.41
2022-11-09T02:48:07.400Z,44.61
2022-11-09T02:51:14.427Z,45.03
2022-11-09T02:54:21.405Z,44.67
2022-11-09T02:57:26.543Z,44.89
2022-11-09T03:00:31.039Z,44.69
2022-11-09T03:03:35.409Z,44.60
2022-11-09T03:06:39.872Z,44.42
2022-11-09T03:09:49.960Z,44.24
2022-11-09T03:12:56.355Z,44.42
2022-11-09T03:16:05.250Z,44.27
2022-11-09T03:19:13.124Z,43.73
2022-11-09T03:22:17.570Z,43.03
2022-11-09T03:25:23.184Z,44.18
2022-11-09T03:28:28.003Z,43.63
2022-11-09T03:31:32.528Z,43.25
2022-11-09T03:34:41.015Z,42.83
2022-11-09T03:37:46.385Z,42.88
2022-11-09T03:40:50.713Z,42.33
2022-11-09T03:43:55.773Z,41.52
2022-11-09T03:47:00.127Z,41.34
2022-11-09T03:50:05.050Z,40.94
2022-11-09T03:53:11.542Z,41.70
2022-11-09T03:56:16.002Z,41.55
2022-11-09T03:59:20.503Z,41.72
2022-11-09T04:02:24.774Z,41.97
2022-11-09T04:05:29.653Z,41.31
2022-11-09T04:08:34.022Z,41.86
2022-11-09T04:11:38.642Z,41.39
2022-11-09T04:14:42.972Z,41.32
2022-11-09T04:17:56.879Z,41.57
2022-11-09T04:21:01.043Z,41.74
2022-11-09T04:24:05.786Z,42.09
2022-11-09T04:27:09.947Z,41.71
2022-11-09T04:30:14.354Z,41.49
2022-11-09T04:33:19.158Z,41.83
2022-11-09T04:36:24.328Z,41.82
2022-11-09T04:39:28.766Z,42.15
2022-11-09T04:42:33.538Z,41.92
2022-11-09T04:45:38.133Z,42.54
2022-11-09T04:48:42.353Z,42.15
2022-11-09T04:51:46.991Z,42.34
2022-11-09T04:54:51.044Z,42.38
2022-11-09T04:57:55.557Z,42.17
2022-11-09T05:01:07.677Z,42.48
2022-11-09T05:04:12.064Z,42.31
2022-11-09T05:07:16.611Z,42.06
2022-11-09T05:10:21.542Z,41.97
2022-11-09T05:13:27.215Z,41.81
2022-11-09T05:16:32.087Z,41.99
2022-11-09T05:19:36.791Z,42.60
2022-11-09T05:22:59.966Z,42.87
2022-11-09T05:26:04.489Z,43.32
2022-11-09T05:29:13.544Z,43.83
2022-11-09T05:32:18.038Z,44.29
2022-11-09T05:35:23.029Z,44.46
2022-11-09T05:38:27.230Z,44.15
2022-11-09T05:41:31.575Z,44.55
2022-11-09T05:44:35.810Z,44.45
2022-11-09T05:47:41.157Z,44.14
2022-11-09T05:50:46.123Z,43.68
2022-11-09T05:53:58.424Z,44.16
2022-11-09T05:57:03.000Z,43.97
2022-11-09T06:00:10.970Z,43.62
2022-11-09T06:03:18.660Z,44.38
2022-11-09T06:06:23.279Z,43.89
2022-11-09T06:09:27.588Z,44.23
2022-11-09T06:12:32.874Z,43.91
2022-11-09T06:15:37.257Z,43.61
2022-11-09T06:18:41.745Z,43.21
2022-11-09T06:21:46.684Z,43.18
2022-11-09T06:24:52.093Z,42.98
2022-11-09T06:27:57.067Z,43.21
2022-11-09T06:31:02.956Z,43.58
2022-11-09T06:34:07.149Z,43.48
2022-11-09T06:37:11.623Z,43.85
2022-11-09T06:40:16.231Z,43.68
2022-11-09T06:43:21.211Z,43.71
2022-11-09T06:46:26.424Z,43.95
2022-11-09T06:49:30.682Z,43.73
2022-11-09T06:52:34.845Z,43.95
2022-11-09T06:55:39.722Z,44.19
2022-11-09T06:58:44.765Z,44.39
2022-11-09T07:01:49.128Z,44.46
2022-11-09T07:04:53.626Z,44.73
2022-11-09T07:07:58.952Z,44.76
2022-11-09T07:11:16.999Z,44.58
2022-11-09T07:14:21.287Z,45.20
2022-11-09T07:17:25.844Z,45.61
2022-11-09T07:20:31.094Z,46.50
2022-11-09T07:23:35.789Z,46.28
2022-11-09T07:26:39.998Z,46.58
2022-11-09T07:29:44.177Z,47.08
2022-11-09T07:36:16.884Z,46.79
2022-11-09T07:39:24.191Z,46.74
2022-11-09T07:42:28.462Z,46.76
2022-11-09T07:45:34.490Z,47.28
2022-11-09T07:48:38.851Z,47.51
2022-11-09T07:51:43.370Z,47.35
2022-11-09T07:54:51.971Z,47.68
2022-11-09T07:57:58.630Z,48.35
2022-11-09T08:01:03.226Z,48.98
2022-11-09T08:04:07.832Z,48.90
2022-11-09T08:07:12.489Z,49.96
2022-11-09T08:10:17.279Z,49.62
2022-11-09T08:13:22.851Z,49.58
2022-11-09T08:16:27.746Z,50.88
2022-11-09T08:19:32.135Z,51.14
2022-11-09T08:22:46.347Z,51.33
2022-11-09T08:25:52.099Z,50.93
2022-11-09T08:28:56.806Z,50.35
2022-11-09T08:32:01.868Z,50.48
2022-11-09T08:35:06.927Z,51.41
2022-11-09T08:38:11.371Z,50.21
2022-11-09T08:41:15.950Z,50.28
2022-11-09T08:44:20.066Z,50.10
2022-11-09T08:47:24.715Z,51.43
2022-11-09T08:50:30.891Z,50.80
2022-11-09T08:53:35.199Z,51.70
2022-11-09T08:56:39.748Z,52.34
2022-11-09T08:59:44.268Z,54.31
2022-11-09T09:02:48.706Z,53.72
2022-11-09T09:05:53.397Z,51.94
2022-11-09T09:08:57.743Z,52.36
2022-11-09T09:12:02.815Z,52.69
2022-11-09T09:15:08.174Z,54.52
2022-11-09T09:18:12.823Z,52.61
2022-11-09T09:21:18.796Z,53.35
2022-11-09T09:24:22.707Z,55.18
2022-11-09T09:27:27.388Z,54.25
2022-11-09T09:30:32.908Z,52.43
2022-11-09T09:33:40.407Z,53.42
2022-11-09T09:36:47.997Z,52.52
2022-11-09T09:39:52.786Z,53.66
2022-11-09T09:42:57.811Z,54.04
2022-11-09T09:46:05.958Z,54.36
2022-11-09T09:49:23.466Z,55.28
2022-11-09T09:52:50.634Z,54.71
2022-11-09T09:56:14.009Z,55.50
2022-11-09T09:59:42.119Z,56.42
2022-11-09T10:02:46.706Z,55.13
2022-11-09T10:05:53.549Z,57.63
2022-11-09T10:09:10.876Z,55.33
2022-11-09T10:12:36.196Z,55.29
2022-11-09T10:16:06.823Z,55.38
2022-11-09T10:19:50.282Z,56.76
2022-11-09T10:23:20.009Z,55.70
2022-11-09T10:26:38.357Z,55.76
2022-11-09T10:29:54.908Z,54.28
2022-11-09T10:33:15.736Z,54.43
2022-11-09T10:36:54.245Z,55.15
2022-11-09T10:40:29.874Z,55.73
2022-11-09T10:43:53.173Z,54.96
2022-11-09T10:47:18.390Z,55.53
2022-11-09T10:50:57.250Z,55.11
2022-11-09T10:54:38.814Z,54.53
2022-11-09T10:58:14.757Z,54.80
2022-11-09T11:01:38.529Z,54.79
2022-11-09T11:05:08.360Z,54.87
2022-11-09T11:08:32.865Z,54.50
2022-11-09T11:12:17.652Z,54.35
2022-11-09T11:15:45.604Z,54.51
2022-11-09T11:19:33.334Z,53.81
2022-11-09T11:23:11.676Z,53.86
2022-11-09T11:27:10.372Z,53.26
2022-11-09T11:30:40.488Z,53.87
2022-11-09T11:34:04.376Z,53.68
2022-11-09T11:37:57.448Z,52.49
2022-11-09T11:41:57.025Z,52.80
2022-11-09T11:45:43.183Z,51.01
2022-11-09T11:49:32.950Z,51.57
2022-11-09T11:53:04.733Z,52.45
2022-11-09T11:56:31.246Z,52.65
2022-11-09T12:00:12.418Z,52.66
2022-11-09T12:03:36.080Z,52.58
2022-11-09T12:07:07.620Z,52.58
2022-11-09T12:10:41.324Z,52.62
2022-11-09T12:14:39.431Z,53.21
2022-11-09T12:18:38.867Z,53.36
2022-11-09T12:22:24.695Z,53.08
2022-11-09T12:26:24.011Z,53.55
2022-11-09T12:30:00.806Z,53.15
2022-11-09T12:33:33.708Z,54.03
2022-11-09T12:37:06.023Z,54.94
2022-11-09T12:40:55.205Z,54.55
2022-11-09T12:44:54.627Z,54.62
2022-11-09T12:48:31.678Z,54.63
2022-11-09T12:51:58.942Z,55.08
2022-11-09T12:55:43.778Z,54.65
2022-11-09T12:59:29.364Z,56.05
2022-11-09T13:02:58.557Z,56.17
2022-11-09T13:06:34.210Z,56.12
2022-11-09T13:10:00.693Z,55.88
2022-11-09T13:13:26.291Z,56.63
2022-11-09T13:16:50.339Z,56.93
2022-11-09T13:20:58.064Z,57.60
2022-11-09T13:24:32.656Z,56.50
2022-11-09T13:27:55.343Z,55.99
2022-11-09T13:31:57.781Z,56.56
2022-11-09T13:35:41.902Z,56.59
2022-11-09T13:39:34.154Z,56.27
2022-11-09T13:43:02.705Z,55.48
2022-11-09T13:46:29.905Z,54.79
2022-11-09T13:49:53.651Z,54.79
2022-11-09T13:53:35.086Z,56.66
2022-11-09T13:56:58.487Z,56.78
2022-11-09T14:00:25.072Z,55.94
2022-11-09T14:03:53.106Z,55.58
2022-11-09T14:07:21.501Z,55.09
2022-11-09T14:11:06.233Z,54.81
2022-11-09T14:14:50.179Z,53.27
2022-11-09T14:18:39.894Z,52.28
2022-11-09T14:22:02.703Z,54.20
2022-11-09T14:25:26.758Z,54.03
2022-11-09T14:28:49.695Z,53.96
2022-11-09T14:32:27.352Z,53.41
2022-11-09T14:35:51.538Z,53.10
2022-11-09T14:39:23.990Z,48.51
2022-11-09T14:43:29.534Z,50.19
2022-11-09T14:46:57.336Z,51.17
2022-11-09T14:50:29.881Z,49.53
2022-11-09T14:53:52.763Z,49.74
2022-11-09T14:57:19.221Z,48.66
2022-11-09T15:00:46.066Z,46.89
2022-11-09T15:04:17.910Z,49.38
2022-11-09T15:07:40.930Z,49.38
2022-11-09T15:11:03.896Z,48.81
2022-11-09T15:14:35.214Z,49.13
2022-11-09T15:17:58.635Z,48.49
2022-11-09T15:21:27.656Z,48.27
2022-11-09T15:24:50.647Z,48.54
2022-11-09T15:28:16.239Z,48.95
2022-11-09T15:31:39.400Z,47.98
2022-11-09T15:35:02.160Z,48.29
2022-11-09T15:38:43.311Z,46.82
2022-11-09T15:42:06.812Z,47.94
2022-11-09T15:45:29.586Z,48.60
2022-11-09T15:48:52.647Z,47.95
2022-11-09T15:52:15.373Z,48.20
2022-11-09T15:55:37.961Z,47.63
2022-11-09T15:59:00.700Z,48.86
2022-11-09T16:02:23.471Z,48.37
2022-11-09T16:05:47.109Z,48.54
2022-11-09T16:09:10.112Z,48.95
2022-11-09T16:12:33.093Z,48.71
2022-11-09T16:16:05.028Z,48.57
2022-11-09T16:19:28.054Z,49.19
2022-11-09T16:22:51.042Z,49.27
2022-11-09T16:26:16.597Z,49.85
2022-11-09T16:29:42.077Z,49.26
2022-11-09T16:33:04.852Z,48.96
2022-11-09T16:36:27.807Z,49.41
2022-11-09T16:39:51.732Z,48.65
2022-11-09T16:43:14.309Z,48.59
2022-11-09T16:46:37.578Z,49.02
2022-11-09T16:50:00.702Z,48.53
2022-11-09T16:53:26.912Z,48.18
2022-11-09T16:56:50.286Z,48.65
2022-11-09T17:00:14.045Z,48.75
2022-11-09T17:03:36.797Z,48.71
2022-11-09T17:07:00.010Z,48.87
2022-11-09T17:10:22.554Z,48.22
2022-11-09T17:13:45.555Z,47.74
2022-11-09T17:17:08.087Z,47.97
2022-11-09T17:20:31.849Z,47.88
2022-11-09T17:23:56.174Z,47.53
2022-11-09T17:27:18.971Z,47.27
2022-11-09T17:30:42.820Z,46.66
2022-11-09T17:34:05.968Z,47.70
2022-11-09T17:37:29.630Z,47.43
2022-11-09T17:40:52.033Z,47.61
2022-11-09T17:44:14.952Z,48.29
2022-11-09T17:47:37.855Z,47.70
2022-11-09T17:51:01.490Z,47.85
2022-11-09T17:54:24.290Z,48.81
2022-11-09T17:57:46.948Z,48.62
2022-11-09T18:01:12.503Z,48.23
2022-11-09T18:04:35.086Z,49.09
2022-11-09T18:07:57.821Z,50.27
2022-11-09T18:11:20.430Z,51.00
2022-11-09T18:14:44.738Z,50.14
2022-11-09T18:18:08.497Z,50.65
2022-11-09T18:21:32.559Z,52.40
2022-11-09T18:24:58.339Z,51.03
2022-11-09T18:28:21.416Z,50.54
2022-11-09T18:31:44.511Z,51.10
2022-11-09T18:35:08.656Z,52.33
2022-11-09T18:38:32.384Z,52.73
2022-11-09T18:41:55.730Z,52.14
2022-11-09T18:45:18.502Z,52.79
2022-11-09T18:48:41.935Z,54.09
2022-11-09T18:52:04.650Z,53.95
2022-11-09T18:55:27.459Z,53.98
2022-11-09T18:58:55.598Z,53.49
2022-11-09T19:02:18.466Z,52.60
2022-11-09T19:05:45.721Z,52.40
2022-11-09T19:09:29.545Z,54.65
2022-11-09T19:12:52.352Z,53.67
2022-11-09T19:16:16.495Z,53.92
2022-11-09T19:19:39.381Z,55.54
2022-11-09T19:23:02.078Z,54.21
2022-11-09T19:26:25.108Z,54.21
2022-11-09T19:29:48.727Z,55.14
2022-11-09T19:33:12.082Z,56.03
2022-11-09T19:36:34.922Z,54.61
2022-11-09T19:39:57.862Z,54.69
2022-11-09T19:43:21.308Z,55.59
2022-11-09T19:46:44.869Z,56.58
2022-11-09T19:50:08.423Z,56.37
2022-11-09T19:53:32.309Z,56.14
2022-11-09T19:56:55.058Z,56.85
2022-11-09T20:00:19.451Z,56.03
2022-11-09T20:03:42.184Z,56.74
2022-11-09T20:07:05.965Z,55.92
2022-11-09T20:10:28.486Z,56.38
2022-11-09T20:13:51.052Z,55.95
2022-11-09T20:17:13.957Z,55.74
2022-11-09T20:20:36.994Z,54.99
2022-11-09T20:23:59.777Z,55.62
2022-11-09T20:27:26.924Z,56.47
2022-11-09T20:30:52.060Z,56.55
2022-11-09T20:34:15.499Z,55.46
2022-11-09T20:37:38.377Z,56.47
2022-11-09T20:41:07.072Z,55.15
2022-11-09T20:44:29.598Z,55.55
2022-11-09T20:48:10.520Z,56.13
2022-11-09T20:51:35.918Z,56.17
2022-11-09T20:54:58.799Z,57.64
2022-11-09T20:58:22.664Z,56.53
2022-11-09T21:01:46.707Z,56.16
2022-11-09T21:05:09.909Z,56.10
2022-11-09T21:08:33.282Z,57.16
2022-11-09T21:12:14.900Z,56.63
2022-11-09T21:15:38.072Z,55.79
2022-11-09T21:19:01.209Z,55.95
2022-11-09T21:22:43.838Z,55.77
2022-11-09T21:26:25.188Z,56.55
2022-11-09T21:29:54.227Z,56.39
2022-11-09T21:33:17.307Z,55.41
2022-11-09T21:36:40.240Z,55.46
2022-11-09T21:40:02.972Z,54.75
2022-11-09T21:43:26.775Z,55.15
2022-11-09T21:46:51.156Z,54.90
2022-11-09T21:50:14.032Z,55.07
2022-11-09T21:53:39.723Z,55.11
2022-11-09T21:57:02.154Z,55.69
2022-11-09T22:00:25.058Z,55.35
2022-11-09T22:03:48.717Z,55.43
2022-11-09T22:07:14.273Z,54.95
2022-11-09T22:10:37.353Z,54.82
2022-11-09T22:14:18.538Z,53.91
2022-11-09T22:17:42.530Z,54.28
2022-11-09T22:21:05.442Z,53.69
2022-11-09T22:24:31.587Z,53.91
2022-11-09T22:27:58.713Z,53.73
2022-11-09T22:31:21.191Z,53.91
2022-11-09T22:34:45.692Z,52.98
2022-11-09T22:38:08.677Z,53.80
2022-11-09T22:41:31.384Z,53.05
2022-11-09T22:44:55.082Z,52.84
2022-11-09T22:48:18.059Z,52.53
2022-11-09T22:51:41.125Z,51.26
2022-11-09T22:55:03.875Z,50.83
2022-11-09T22:58:27.721Z,51.14
2022-11-09T23:01:50.703Z,51.91
2022-11-09T23:05:13.431Z,51.74
2022-11-09T23:08:39.987Z,50.21
2022-11-09T23:12:02.330Z,49.15
2022-11-09T23:15:24.994Z,51.39
2022-11-09T23:18:57.031Z,50.19
2022-11-09T23:22:20.109Z,49.92
2022-11-09T23:25:55.179Z,49.37
2022-11-09T23:29:19.215Z,47.98
2022-11-09T23:32:42.419Z,48.13
2022-11-09T23:36:06.585Z,47.15
2022-11-09T23:39:29.025Z,46.48
2022-11-09T23:42:52.762Z,46.23
2022-11-09T23:46:16.384Z,46.34
2022-11-09T23:49:39.037Z,44.56
2022-11-09T23:53:04.368Z,44.68
2022-11-09T23:56:27.712Z,41.45
2022-11-09T23:59:50.677Z,41.80
